Latest Weather Observations for Neptune Island

IDS60801

Issued at 4:02 pm CDT Thursday 8 December 2016 (issued every 30 minutes, with the page automatically refreshed every 10 minutes)

About weather observations | Map of weather stations | Latest weather observations for SA | Other Formats
Station Details ID: 018115 Name: NEPTUNE ISLAND Lat: -35.34 Lon: 136.12 Height: 32.0 m
Data from the previous 72 hours. | See also: Recent months at Neptune Island
Date/Time
CDT
Temp
°C
App
Temp
°C
Dew
Point
°C
Rel
Hum
%
Delta-T
°C
Wind Press
QNH
hPa
Press
MSL
hPa
Rain since
9am
mm
Dir  Spd
km/h
Gust
km/h
Spd
kts
Gust
kts
08/04:00pm 16.5 6.9 9.4 63 3.7 WSW 50 57 27 31 1012.7 1012.7 0.0
08/03:30pm 16.9 8.0 10.7 67 3.3 WSW 48 57 26 31 1012.4 1012.4 0.0
08/03:00pm 16.8 6.5 9.5 62 3.8 WSW 54 59 29 32 1012.1 1012.1 0.0
08/02:30pm 16.5 6.0 8.7 60 4.0 WSW 54 65 29 35 1012.0 1012.0 0.0
08/02:00pm 16.5 6.6 9.9 65 3.5 WSW 52 59 28 32 1012.0 1012.0 0.0
08/01:30pm 17.2 7.7 9.9 62 3.9 WSW 50 61 27 33 1011.7 1011.7 0.0
08/01:00pm 16.8 6.7 9.0 60 4.0 SW 52 59 28 32 1011.6 1011.6 0.0
08/12:30pm 17.1 7.0 9.0 59 4.2 SW 52 63 28 34 1011.3 1011.3 0.0
08/12:00pm 16.5 6.6 9.7 64 3.6 WSW 52 61 28 33 1010.8 1010.8 0.0
08/11:30am 15.8 6.1 10.3 70 2.9 SW 52 63 28 34 1010.7 1010.7 0.0
08/11:00am 16.0 6.5 11.0 72 2.7 WSW 52 61 28 33 1010.1 1010.1 0.0
08/10:30am 14.0 2.8 10.0 77 2.1 WSW 59 72 32 39 1009.5 1009.5 0.0
08/10:23am 15.6 6.0 10.8 73 2.6 WSW 52 72 28 39 1009.2 1009.2 0.0
08/10:00am 15.6 5.6 10.6 72 2.6 SW 54 61 29 33 1009.2 1009.2 0.0
08/09:30am 15.7 6.3 10.0 69 3.0 WSW 50 61 27 33 1008.7 1008.7 0.0
08/09:00am 15.5 5.8 10.3 71 2.7 WSW 52 63 28 34 1008.3 1008.3 -
08/08:30am 15.7 5.2 10.2 70 2.9 WSW 56 63 30 34 1007.8 1007.8 -
08/08:00am 15.5 5.1 10.7 73 2.5 WSW 56 70 30 38 1007.3 1007.3 -
08/07:30am 15.2 4.4 10.0 71 2.7 WSW 57 69 31 37 1006.7 1006.7 -
08/07:00am 15.1 3.9 9.9 71 2.7 WSW 59 69 32 37 1006.0 1005.9 -
08/06:30am 15.1 4.6 10.3 73 2.5 WSW 56 65 30 35 1005.7 1005.6 -
08/06:00am 15.0 3.8 10.0 72 2.6 WSW 59 70 32 38 1005.3 1005.2 -
08/05:30am 15.3 4.8 10.9 75 2.3 WSW 57 69 31 37 1004.6 1004.5 -
08/05:00am 15.2 4.5 10.4 73 2.5 WSW 57 70 31 38 1003.9 1003.8 -
08/04:30am 15.3 3.0 9.9 70 2.8 WSW 65 76 35 41 1003.6 1003.5 -
08/04:00am 15.3 1.7 10.1 71 2.7 WSW 72 87 39 47 1002.9 1002.8 -
08/03:30am 15.2 2.0 10.0 71 2.7 WSW 70 83 38 45 1002.5 1002.4 -
08/03:00am 15.2 2.0 10.0 71 2.7 WSW 70 85 38 46 1001.7 1001.6 1.0
08/02:30am 15.3 0.3 10.5 73 2.5 WSW 80 95 43 51 1001.1 1001.0 -
08/02:00am 15.4 2.1 11.2 76 2.2 WSW 72 93 39 50 1000.9 1000.8 -
08/01:35am 15.6 3.1 11.8 78 2.1 WSW 69 87 37 47 1001.0 1000.9 -
08/01:30am 15.6 2.9 11.8 78 2.1 WSW 70 87 38 47 1001.0 1000.9 -
08/01:02am 15.8 2.9 12.5 81 1.8 WSW 72 91 39 49 1000.4 1000.3 -
08/01:00am 16.0 3.2 12.9 82 1.7 WSW 72 87 39 47 1000.6 1000.5 -
08/12:41am 16.9 5.9 14.2 84 1.5 WSW 65 85 35 46 1000.3 1000.2 -
08/12:30am 17.2 6.8 14.8 86 1.4 WSW 63 76 34 41 1000.5 1000.4 -
08/12:28am 17.2 6.4 14.8 86 1.4 WSW 65 83 35 45 1000.5 1000.4 -
08/12:00am 17.2 8.1 15.2 88 1.2 W 57 70 31 38 1000.3 1000.2 -
 
Date/Time
CDT
Temp
°C
App
Temp
°C
Dew
Point
°C
Rel
Hum
%
Delta-T
°C
Wind Press
QNH
hPa
Press
MSL
hPa
Rain since
9am
mm
Dir  Spd
km/h
Gust
km/h
Spd
kts
Gust
kts
07/11:30pm 17.4 10.1 15.6 89 1.1 W 48 56 26 30 1000.6 1000.5 -
07/11:00pm 18.0 8.9 15.4 85 1.5 W 57 72 31 39 1000.1 1000.0 -
07/10:45pm 19.0 10.2 15.5 80 2.1 W 56 69 30 37 999.9 999.8 -
07/10:31pm 19.1 16.2 16.0 82 1.8 WNW 26 52 14 28 1000.4 1000.3 -
07/10:30pm 19.0 16.4 15.9 82 1.9 WNW 24 52 13 28 1000.3 1000.2 -
07/10:00pm 18.7 18.7 15.2 80 2.1 NNE 9 13 5 7 999.2 999.1 -
07/09:30pm 19.0 18.3 15.3 79 2.2 NNE 13 15 7 8 999.4 999.3 -
07/09:00pm 19.0 19.5 15.5 80 2.1 WNW 7 9 4 5 1000.0 999.9 0.0
07/08:30pm 18.8 17.2 15.1 79 2.2 NNE 17 19 9 10 999.4 999.3 -
07/08:00pm 18.8 17.4 15.5 81 1.9 NE 17 20 9 11 999.6 999.5 -
07/07:30pm 18.7 15.9 15.4 81 2.0 NE 24 28 13 15 999.6 999.5 -
07/07:00pm 18.8 17.7 15.3 80 2.1 NE 15 20 8 11 1000.8 1000.7 -
07/06:30pm 19.4 18.0 15.5 78 2.3 NE 17 24 9 13 1001.2 1001.1 -
07/06:00pm 19.9 19.5 15.3 75 2.7 NE 11 13 6 7 1002.0 1001.9 -
07/05:30pm 19.8 19.0 15.0 74 2.8 ENE 13 17 7 9 1002.1 1002.0 -
07/05:00pm 20.0 18.8 15.0 73 2.9 NE 15 19 8 10 1003.1 1003.0 -
07/04:30pm 20.4 19.0 15.6 74 2.9 NE 17 20 9 11 1003.9 1003.8 -
07/04:00pm 20.9 19.8 16.3 75 2.8 NE 17 20 9 11 1004.7 1004.6 -
07/03:30pm 20.4 18.6 15.6 74 2.9 NE 19 20 10 11 1005.6 1005.5 -
07/03:00pm 21.2 20.0 16.0 72 3.1 NE 17 20 9 11 1006.3 1006.2 -
07/02:30pm 20.0 18.5 15.2 74 2.8 NE 17 24 9 13 1007.0 1007.0 -
07/02:00pm 20.0 18.5 15.2 74 2.8 NE 17 22 9 12 1007.8 1007.8 -
07/01:30pm 19.4 16.8 14.9 75 2.6 NE 22 32 12 17 1008.5 1008.5 -
07/01:00pm 19.3 16.1 14.3 73 2.9 NNE 24 30 13 16 1009.0 1009.0 -
07/12:30pm 20.4 17.7 15.6 74 2.9 NNE 24 30 13 16 1009.4 1009.4 -
07/12:00pm 19.0 16.9 14.7 76 2.5 NE 19 24 10 13 1009.9 1009.9 -
07/11:30am 18.9 16.6 14.6 76 2.5 NE 20 28 11 15 1010.2 1010.2 -
07/11:00am 18.5 15.4 14.4 77 2.4 NE 24 32 13 17 1010.7 1010.7 -
07/10:30am 18.2 14.1 13.7 75 2.6 NE 28 35 15 19 1011.0 1011.0 -
07/10:00am 18.2 14.8 13.7 75 2.6 NE 24 35 13 19 1011.5 1011.5 -
07/09:30am 17.8 14.7 13.5 76 2.4 NNE 22 30 12 16 1011.9 1011.9 -
07/09:00am 17.4 14.8 13.3 77 2.3 NE 19 24 10 13 1012.1 1012.1 0.0
07/08:30am 16.7 14.0 13.0 79 2.1 NE 19 26 10 14 1012.3 1012.3 0.0
07/08:00am 16.6 13.7 12.9 79 2.1 NE 20 28 11 15 1012.4 1012.4 0.0
07/07:30am 16.0 13.1 12.4 79 2.0 NE 19 28 10 15 1012.7 1012.7 0.0
07/07:00am 16.1 12.3 12.5 79 2.0 NE 24 28 13 15 1012.7 1012.7 0.0
07/06:30am 15.7 12.8 12.3 80 1.9 ENE 19 20 10 11 1012.9 1012.9 0.0
07/06:00am 15.1 12.3 11.3 78 2.0 E 17 20 9 11 1012.9 1012.9 0.0
07/05:30am 14.8 11.8 10.8 77 2.1 E 17 19 9 10 1012.6 1012.6 0.0
07/05:00am 14.6 11.5 10.2 75 2.3 E 17 19 9 10 1012.6 1012.6 0.0
07/04:30am 14.5 11.8 10.3 76 2.2 E 15 17 8 9 1012.6 1012.6 0.0
07/04:00am 14.5 11.3 10.1 75 2.3 ESE 17 20 9 11 1012.6 1012.6 0.0
07/03:30am 14.4 11.5 9.8 74 2.4 ESE 15 17 8 9 1012.7 1012.7 0.0
07/03:00am 14.7 11.9 10.1 74 2.4 SE 15 19 8 10 1013.0 1013.0 0.0
07/02:30am 14.8 12.4 10.0 73 2.5 SE 13 17 7 9 1013.5 1013.5 0.0
07/02:00am 15.1 12.7 10.1 72 2.6 SSE 13 15 7 8 1013.8 1013.8 0.0
07/01:30am 15.3 13.0 10.3 72 2.6 SSE 13 15 7 8 1014.1 1014.1 0.0
07/01:00am 15.3 13.3 10.1 71 2.7 SSE 11 11 6 6 1014.6 1014.6 0.0
07/12:30am 15.5 13.5 10.1 70 2.8 S 11 13 6 7 1015.2 1015.2 0.0
07/12:00am 15.6 13.5 9.9 69 3.0 S 11 13 6 7 1015.8 1015.7 0.0
 
Date/Time
CDT
Temp
°C
App
Temp
°C
Dew
Point
°C
Rel
Hum
%
Delta-T
°C
Wind Press
QNH
hPa
Press
MSL
hPa
Rain since
9am
mm
Dir  Spd
km/h
Gust
km/h
Spd
kts
Gust
kts
06/11:30pm 15.6 13.9 9.7 68 3.1 S 9 11 5 6 1015.9 1015.8 0.0
06/11:00pm 15.7 13.9 9.6 67 3.2 S 9 11 5 6 1016.2 1016.1 0.0
06/10:30pm 16.2 13.7 9.8 66 3.3 SSW 13 15 7 8 1016.4 1016.3 0.0
06/10:00pm 16.2 14.1 9.6 65 3.4 SSW 11 13 6 7 1016.3 1016.2 0.0
06/09:30pm 16.3 14.1 9.3 63 3.6 SSW 11 13 6 7 1016.0 1015.9 0.0
06/09:00pm 16.4 13.9 9.6 64 3.5 SSW 13 17 7 9 1015.9 1015.8 0.0
06/08:30pm 16.8 13.9 9.7 63 3.7 SSW 15 19 8 10 1015.8 1015.7 0.0
06/08:00pm 17.1 14.8 9.0 59 4.2 SSW 11 15 6 8 1015.5 1015.4 0.0
06/07:30pm 17.8 14.9 9.7 59 4.3 SW 15 19 8 10 1015.6 1015.5 0.0
06/07:00pm 18.4 15.0 9.2 55 4.8 SW 17 20 9 11 1015.5 1015.4 0.0
06/06:30pm 18.5 15.1 9.0 54 5.0 SSW 17 22 9 12 1015.3 1015.3 0.0
06/06:00pm 18.6 14.7 8.6 52 5.2 SSW 19 22 10 12 1015.3 1015.3 0.0
06/05:30pm 19.1 15.9 8.4 50 5.5 SSW 15 20 8 11 1015.3 1015.3 0.0
06/05:00pm 19.0 16.5 8.4 50 5.5 SW 11 15 6 8 1015.6 1015.5 0.0
06/04:30pm 18.6 15.8 7.1 47 5.8 SW 11 15 6 8 1015.8 1015.7 0.0
06/04:00pm 18.5 16.2 7.3 48 5.7 WSW 9 11 5 6 1016.2 1016.1 0.0
06/03:30pm 18.2 15.8 7.0 48 5.6 SW 9 11 5 6 1016.2 1016.1 0.0
06/03:00pm 18.7 16.8 7.5 48 5.7 S 7 9 4 5 1016.2 1016.1 0.0
06/02:30pm 17.8 15.5 7.5 51 5.2 SSW 9 11 5 6 1016.4 1016.3 0.0
06/02:00pm 17.8 15.7 8.4 54 4.8 SSW 9 13 5 7 1016.6 1016.5 0.0
06/01:30pm 18.1 15.8 8.9 55 4.8 SSW 11 15 6 8 1016.8 1016.7 0.0
06/01:00pm 18.3 16.1 9.4 56 4.7 SSW 11 15 6 8 1016.8 1016.7 0.0
06/12:30pm 17.5 14.9 9.2 58 4.3 SSW 13 17 7 9 1016.8 1016.7 0.0
06/12:00pm 17.6 15.4 9.5 59 4.2 SSW 11 15 6 8 1016.7 1016.6 0.0
06/11:30am 17.5 15.4 9.7 60 4.1 S 11 13 6 7 1016.7 1016.6 0.0
06/11:00am 17.2 15.4 9.6 61 4.0 S 9 13 5 7 1016.9 1016.8 0.0
06/10:30am 17.4 15.3 9.6 60 4.1 S 11 13 6 7 1016.8 1016.7 0.0
06/10:00am 17.1 15.4 9.8 62 3.8 S 9 11 5 6 1016.8 1016.7 0.0
06/09:30am 16.6 14.5 9.8 64 3.6 S 11 13 6 7 1016.6 1016.5 0.0
06/09:00am 15.6 13.0 9.5 67 3.2 S 13 15 7 8 1016.7 1016.6 0.0
06/08:30am 15.6 13.5 9.9 69 3.0 S 11 15 6 8 1016.4 1016.3 0.0
06/08:00am 15.3 13.2 9.9 70 2.8 SSE 11 15 6 8 1015.9 1015.8 0.0
06/07:30am 15.2 12.8 10.2 72 2.6 S 13 17 7 9 1015.9 1015.8 0.0
06/07:00am 15.0 12.6 10.0 72 2.6 S 13 15 7 8 1015.8 1015.7 0.0
06/06:30am 14.5 11.6 9.7 73 2.5 SSW 15 19 8 10 1015.2 1015.2 0.0
06/06:00am 14.6 11.5 10.2 75 2.3 SSW 17 20 9 11 1015.0 1015.0 0.0
06/05:30am 14.4 11.2 10.0 75 2.3 S 17 20 9 11 1015.0 1015.0 0.0
06/05:00am 14.5 11.0 10.1 75 2.3 S 19 24 10 13 1014.6 1014.6 0.0
06/04:30am 14.6 10.9 10.0 74 2.4 S 20 26 11 14 1014.2 1014.2 0.0
06/04:00am 14.5 10.8 10.1 75 2.3 S 20 22 11 12 1013.6 1013.6 0.0
06/03:30am 14.8 11.2 10.6 76 2.2 S 20 24 11 13 1013.5 1013.5 0.0
06/03:00am 14.5 11.7 10.1 75 2.3 SSE 15 17 8 9 1013.0 1013.0 0.0
06/02:30am 14.5 12.4 9.9 74 2.4 SSE 11 15 6 8 1013.2 1013.2 0.0
06/02:00am 14.7 13.1 10.1 74 2.4 S 9 13 5 7 1014.5 1014.5 0.0
06/01:30am 14.7 13.4 9.9 73 2.5 SSW 7 11 4 6 1015.2 1015.2 0.0
06/01:00am 14.8 12.8 10.0 73 2.5 SSE 11 15 6 8 1015.2 1015.2 0.0
06/12:30am 14.8 11.9 9.6 71 2.7 SSE 15 20 8 11 1014.6 1014.6 0.0
06/12:00am 14.8 10.9 9.6 71 2.7 SE 20 24 11 13 1014.4 1014.4 0.0
 
Date/Time
CDT
Temp
°C
App
Temp
°C
Dew
Point
°C
Rel
Hum
%
Delta-T
°C
Wind Press
QNH
hPa
Press
MSL
hPa
Rain since
9am
mm
Dir  Spd
km/h
Gust
km/h
Spd
kts
Gust
kts
05/11:30pm 14.9 11.1 9.9 72 2.6 SSE 20 26 11 14 1014.8 1014.8 0.0
05/11:00pm 14.9 11.1 9.9 72 2.6 SSE 20 26 11 14 1015.2 1015.2 0.0
05/10:30pm 15.0 11.3 10.0 72 2.6 SSE 20 26 11 14 1015.2 1015.2 0.0
05/10:00pm 15.0 11.2 9.8 71 2.7 SSE 20 24 11 13 1015.0 1015.0 0.0
05/09:30pm 15.3 11.3 10.3 72 2.6 SSE 22 28 12 15 1014.7 1014.7 0.0
05/09:00pm 15.1 10.9 9.7 70 2.8 SSE 22 30 12 16 1014.7 1014.7 0.0
05/08:30pm 15.2 10.2 9.6 69 2.9 S 26 30 14 16 1014.3 1014.3 0.0
05/08:00pm 15.7 10.4 9.8 68 3.1 S 28 32 15 17 1014.0 1014.0 0.0
05/07:30pm 15.9 11.0 10.0 68 3.1 S 26 30 14 16 1013.6 1013.6 0.0
05/07:00pm 16.3 11.1 10.2 67 3.2 S 28 32 15 17 1013.2 1013.2 0.0
05/06:30pm 16.4 10.4 10.0 66 3.4 S 32 35 17 19 1012.8 1012.8 0.0
05/06:00pm 16.5 12.0 9.9 65 3.5 S 24 28 13 15 1013.5 1013.5 0.0
05/05:30pm 16.9 12.7 9.6 62 3.8 S 22 28 12 15 1013.6 1013.6 0.0
05/05:00pm 17.6 14.0 10.0 61 4.0 S 19 22 10 12 1013.8 1013.8 0.0
05/04:30pm 17.3 13.5 9.2 59 4.2 S 19 24 10 13 1013.7 1013.7 0.0

Other Formats:

Comma delimited format used in spreadsheet applications
http://www.bom.gov.au/fwo/IDS60801/IDS60801.94804.axf

JavaScript Object Notation format (JSON) in row-major order
http://www.bom.gov.au/fwo/IDS60801/IDS60801.94804.json